Time;durP1;ratioP1;P1;durP2;ratioP2;P2;SDS_P1;SDS_P2;PMS_P1;PMS_P2;Temp;Humidity;BMP_temperature;BMP_pressure;BME280_temperature;BME280_humidity;BME280_pressure;Samples;Min_cycle;Max_cycle;Signal;HPM_P1;HPM_P2
2021/08/02 00:00:06;;;;;;;11.35;10.30;;;;;;;24.41;74.42;100550.88;4987406;28;104140;-56
2021/08/02 00:02:36;;;;;;;10.38;9.40;;;;;;;24.41;74.25;100550.88;4989065;28;102310;-57
2021/08/02 00:05:07;;;;;;;10.00;9.07;;;;;;;24.43;73.97;100559.66;4986856;28;102848;-56
2021/08/02 00:07:41;;;;;;;10.75;9.65;;;;;;;24.42;74.17;100552.50;4984955;28;102403;-56
2021/08/02 00:10:10;;;;;;;9.82;9.00;;;;;;;24.41;74.16;100556.44;4981384;28;103892;-56
2021/08/02 00:12:41;;;;;;;10.55;9.63;;;;;;;24.41;74.17;100556.44;4989162;28;102315;-56
2021/08/02 00:15:13;;;;;;;10.20;9.40;;;;;;;24.40;74.00;100549.25;4985124;28;102244;-57
2021/08/02 00:17:40;;;;;;;10.50;9.50;;;;;;;24.41;74.11;100562.00;4988322;28;102605;-57
2021/08/02 00:20:12;;;;;;;9.90;9.10;;;;;;;24.40;74.04;100565.94;4987289;28;103926;-57
2021/08/02 00:22:50;;;;;;;9.80;9.00;;;;;;;24.42;73.99;100569.19;4987818;28;102236;-57
2021/08/02 00:25:17;;;;;;;9.88;9.07;;;;;;;24.41;74.01;100557.22;4986601;28;102840;-57
2021/08/02 00:27:45;;;;;;;9.60;8.77;;;;;;;24.41;74.06;100567.56;4986969;28;103019;-58
2021/08/02 00:30:15;;;;;;;9.77;8.88;;;;;;;24.40;74.18;100561.19;4984306;28;103941;-58
2021/08/02 00:32:42;;;;;;;9.68;8.82;;;;;;;24.42;74.33;100563.63;4991450;28;103666;-57
2021/08/02 00:35:09;;;;;;;9.60;8.80;;;;;;;24.41;74.05;100553.66;4987276;28;102654;-57
2021/08/02 00:37:40;;;;;;;9.77;8.98;;;;;;;24.40;74.31;100550.06;4984543;28;103502;-57
2021/08/02 00:40:38;;;;;;;9.70;8.80;;;;;;;24.41;74.25;100539.72;4980088;28;104032;-57
2021/08/02 00:43:22;;;;;;;10.07;9.07;;;;;;;24.39;74.11;100537.34;4977922;28;102267;-57
2021/08/02 00:45:51;;;;;;;9.25;8.45;;;;;;;24.41;74.18;100539.72;4987825;28;102712;-57
2021/08/02 00:48:24;;;;;;;9.32;8.52;;;;;;;24.40;74.33;100529.78;4985991;28;102791;-57
2021/08/02 00:50:52;;;;;;;9.77;8.88;;;;;;;24.39;74.07;100522.59;4980599;28;103916;-57
2021/08/02 00:53:21;;;;;;;9.77;8.98;;;;;;;24.40;74.29;100524.22;4989741;28;102513;-57
2021/08/02 00:55:50;;;;;;;9.35;8.45;;;;;;;24.40;74.13;100529.78;4986528;28;102176;-57
2021/08/02 00:58:19;;;;;;;8.75;8.05;;;;;;;24.39;74.45;100533.72;4983778;28;105860;-56
2021/08/02 01:00:47;;;;;;;9.48;8.68;;;;;;;24.39;74.23;100525.38;4986514;28;104013;-56
2021/08/02 01:03:16;;;;;;;9.48;8.68;;;;;;;24.39;74.47;100517.03;4985282;28;102068;-57
2021/08/02 01:05:46;;;;;;;9.25;8.43;;;;;;;24.40;74.22;100510.31;4990001;28;102552;-56
2021/08/02 01:08:22;;;;;;;9.20;8.50;;;;;;;24.39;74.23;100511.47;4986360;28;102472;-57
2021/08/02 01:10:53;;;;;;;9.40;8.50;;;;;;;24.37;74.42;100511.81;4988270;28;103865;-57
2021/08/02 01:13:22;;;;;;;9.30;8.05;;;;;;;24.38;74.31;100519.03;4985142;28;102500;-57
2021/08/02 01:15:51;;;;;;;8.73;8.02;;;;;;;24.39;74.46;100515.09;4985688;28;102466;-57
2021/08/02 01:18:21;;;;;;;8.63;7.82;;;;;;;24.40;74.37;100518.66;4986288;28;102369;-56
2021/08/02 01:20:50;;;;;;;9.68;8.77;;;;;;;24.40;74.33;100521.44;4985465;28;104412;-57
2021/08/02 01:23:19;;;;;;;9.07;8.38;;;;;;;24.39;74.39;100517.03;4984995;28;106690;-57
2021/08/02 01:26:15;;;;;;;9.20;8.38;;;;;;;24.39;74.47;100515.09;4986989;28;102444;-57
2021/08/02 01:29:18;;;;;;;9.07;8.23;;;;;;;24.39;74.26;100515.09;4982747;28;102515;-57
2021/08/02 01:31:45;;;;;;;9.02;8.18;;;;;;;24.38;74.44;100515.44;4987580;28;104097;-56
2021/08/02 01:34:11;;;;;;;9.60;8.70;;;;;;;24.39;74.29;100514.25;4986523;28;102046;-56
2021/08/02 01:36:38;;;;;;;8.68;7.88;;;;;;;24.38;74.28;100512.66;4987252;28;102235;-56
2021/08/02 01:39:06;;;;;;;8.93;8.10;;;;;;;24.39;74.51;100514.25;4986176;28;102476;-56
2021/08/02 01:41:32;;;;;;;8.80;8.00;;;;;;;24.38;74.41;100513.47;4986378;28;104059;-56
2021/08/02 01:43:59;;;;;;;8.60;7.93;;;;;;;24.38;74.18;100507.91;4985197;28;102580;-56
2021/08/02 01:46:33;;;;;;;8.57;7.78;;;;;;;24.39;74.48;100503.13;4986771;28;102737;-56
2021/08/02 01:49:07;;;;;;;9.23;8.48;;;;;;;24.39;74.55;100498.41;4986267;28;102487;-56
2021/08/02 01:51:39;;;;;;;9.00;8.20;;;;;;;24.37;74.58;100506.25;4988385;28;103972;-57
2021/08/02 01:54:26;;;;;;;8.15;7.50;;;;;;;24.38;74.31;100512.66;4985905;28;102799;-56
2021/08/02 01:56:59;;;;;;;9.25;8.35;;;;;;;24.39;74.45;100514.25;4987753;28;102488;-56
2021/08/02 01:59:29;;;;;;;8.73;7.97;;;;;;;24.38;74.53;100518.22;4989731;28;102612;-56
2021/08/02 02:01:59;;;;;;;9.50;8.70;;;;;;;24.38;74.31;100515.44;4990415;28;103959;-56
2021/08/02 02:04:30;;;;;;;8.32;7.63;;;;;;;24.37;74.81;100517.38;4987599;28;102104;-56
2021/08/02 02:07:02;;;;;;;8.00;7.30;;;;;;;24.37;74.36;100502.69;4985903;28;102505;-56
2021/08/02 02:09:35;;;;;;;8.00;7.30;;;;;;;24.37;74.30;100499.91;4992880;28;102789;-56
2021/08/02 02:12:05;;;;;;;8.60;7.90;;;;;;;24.38;74.53;100504.31;4989950;28;103689;-57
2021/08/02 02:14:35;;;;;;;8.55;7.75;;;;;;;24.38;74.51;100504.31;4988922;28;102665;-57
2021/08/02 02:17:03;;;;;;;8.57;7.78;;;;;;;24.36;74.53;100498.31;4987281;28;102222;-57
2021/08/02 02:19:31;;;;;;;;;;;;;;;24.37;74.59;100503.47;4996505;28;102933;-57
2021/08/02 02:21:59;;;;;;;8.82;8.07;;;;;;;24.36;74.76;100503.88;4989064;28;103642;-57
2021/08/02 02:24:26;;;;;;;8.20;7.40;;;;;;;24.37;74.74;100502.69;4988151;28;102353;-57
2021/08/02 02:26:56;;;;;;;8.88;8.18;;;;;;;24.35;74.68;100508.63;4979141;28;102585;-56
2021/08/02 02:29:24;;;;;;;8.68;7.85;;;;;;;24.36;74.33;100513.00;5003092;28;102239;-56
2021/08/02 02:31:52;;;;;;;8.60;7.90;;;;;;;24.36;74.66;100520.56;4989040;28;103961;-57
2021/08/02 02:34:19;;;;;;;8.53;7.73;;;;;;;24.37;74.52;100513.81;4995774;28;102146;-57
2021/08/02 02:36:47;;;;;;;8.02;7.35;;;;;;;24.37;74.58;100517.38;5002307;28;102749;-56
2021/08/02 02:39:15;;;;;;;8.45;7.75;;;;;;;24.37;74.50;100519.38;5002298;28;102577;-56
2021/08/02 02:41:42;;;;;;;8.63;7.85;;;;;;;24.37;74.58;100522.16;5003573;28;103197;-57
2021/08/02 02:44:11;;;;;;;8.70;7.90;;;;;;;24.37;74.46;100522.16;4996767;28;102544;-57
2021/08/02 02:46:37;;;;;;;8.45;7.68;;;;;;;24.36;74.56;100515.78;4983401;28;102657;-58
2021/08/02 02:49:05;;;;;;;7.88;7.25;;;;;;;24.37;74.53;100516.59;4992070;28;103048;-57
2021/08/02 02:51:32;;;;;;;7.82;7.22;;;;;;;24.37;74.39;100511.03;4982020;28;103978;-56
2021/08/02 02:54:00;;;;;;;8.32;7.57;;;;;;;24.36;74.61;100517.78;4993647;28;103410;-57
2021/08/02 02:56:26;;;;;;;8.38;7.63;;;;;;;24.36;74.42;100524.13;4994482;28;102671;-57
2021/08/02 02:58:53;;;;;;;8.07;7.38;;;;;;;24.35;74.62;100522.53;4999084;28;102749;-57
2021/08/02 03:01:27;;;;;;;8.30;7.60;;;;;;;24.37;74.46;100531.28;4987980;28;103923;-56
2021/08/02 03:04:00;;;;;;;7.82;7.13;;;;;;;24.37;74.40;100522.16;4985279;28;104330;-57
2021/08/02 03:06:28;;;;;;;8.45;7.28;;;;;;;24.38;74.58;100529.34;4987500;28;102923;-56
2021/08/02 03:08:56;;;;;;;8.20;7.43;;;;;;;24.36;74.71;100526.13;4991164;28;102647;-56
2021/08/02 03:11:28;;;;;;;8.25;7.55;;;;;;;24.37;74.53;100536.06;4988691;28;104130;-56
2021/08/02 03:13:56;;;;;;;8.32;7.63;;;;;;;24.37;74.62;100533.28;4982287;28;102505;-57
2021/08/02 03:16:25;;;;;;;8.13;7.32;;;;;;;24.37;74.72;100527.72;4989224;28;102889;-56
2021/08/02 03:18:52;;;;;;;8.05;7.32;;;;;;;24.36;74.82;100534.47;4985219;28;102527;-56
2021/08/02 03:21:19;;;;;;;8.15;7.45;;;;;;;24.36;74.71;100534.47;4986577;28;104444;-56
2021/08/02 03:23:54;;;;;;;7.78;7.15;;;;;;;24.37;74.70;100538.84;4982192;28;102059;-56
2021/08/02 03:26:29;;;;;;;7.43;6.75;;;;;;;24.35;74.53;100535.63;4986888;28;102545;-56
2021/08/02 03:28:58;;;;;;;8.15;7.43;;;;;;;24.36;74.53;100545.59;4987787;28;103194;-57
2021/08/02 03:31:31;;;;;;;8.05;7.35;;;;;;;24.37;74.64;100545.19;4992595;28;103692;-57
2021/08/02 03:34:01;;;;;;;8.20;7.40;;;;;;;24.36;74.65;100549.16;4978174;28;102501;-57
2021/08/02 03:36:29;;;;;;;8.15;7.45;;;;;;;24.35;74.79;100543.97;4989229;28;102353;-56
2021/08/02 03:38:58;;;;;;;8.13;7.43;;;;;;;24.36;74.73;100548.38;4988121;28;102558;-56
2021/08/02 03:41:26;;;;;;;7.57;6.97;;;;;;;24.37;74.79;100561.88;4988358;28;104051;-56
2021/08/02 03:43:55;;;;;;;8.20;7.50;;;;;;;24.35;74.75;100557.91;4983786;28;102129;-56
2021/08/02 03:46:23;;;;;;;8.13;7.43;;;;;;;24.36;74.64;100570.63;4988814;28;102611;-56
2021/08/02 03:48:51;;;;;;;8.90;8.20;;;;;;;24.36;74.84;100556.72;4988538;28;102476;-56
2021/08/02 03:51:18;;;;;;;;;;;;;;;24.37;74.88;100561.09;4989963;28;104009;-56
2021/08/02 03:53:49;;;;;;;8.57;7.88;;;;;;;24.36;74.73;100559.50;4986741;28;102148;-56
2021/08/02 03:56:17;;;;;;;8.35;7.55;;;;;;;24.37;74.75;100549.97;4987855;28;102414;-56
2021/08/02 03:58:43;;;;;;;8.65;7.90;;;;;;;24.38;74.79;100569.09;4987654;28;102516;-56
2021/08/02 04:01:11;;;;;;;7.82;7.20;;;;;;;24.38;74.86;100563.53;4988031;28;103993;-56
2021/08/02 04:03:39;;;;;;;8.57;7.78;;;;;;;24.38;74.85;100562.72;4989205;28;103479;-57
2021/08/02 04:06:07;;;;;;;8.45;7.35;;;;;;;24.38;74.63;100569.09;4976013;28;102435;-57
2021/08/02 04:08:34;;;;;;;;;;;;;;;24.39;74.97;100564.31;4988277;28;102659;-57
2021/08/02 04:11:00;;;;;;;7.60;7.00;;;;;;;24.40;74.55;100560.38;4984983;28;103910;-57
2021/08/02 04:13:27;;;;;;;8.20;7.40;;;;;;;24.41;74.65;100562.00;4983276;28;102552;-59
2021/08/02 04:15:54;;;;;;;8.52;7.78;;;;;;;24.40;74.75;100560.38;4984243;28;103234;-59
2021/08/02 04:18:23;;;;;;;8.13;7.53;;;;;;;24.41;74.78;100559.22;4986215;28;102110;-59
2021/08/02 04:20:51;;;;;;;8.88;8.07;;;;;;;24.41;74.66;100562.00;4986812;28;103958;-60
2021/08/02 04:23:19;;;;;;;10.43;8.07;;;;;;;24.42;74.56;100558.06;4987357;28;102293;-59
2021/08/02 04:25:46;;;;;;;8.25;7.60;;;;;;;24.41;74.85;100573.13;4984822;28;103548;-60
2021/08/02 04:28:13;;;;;;;8.50;7.78;;;;;;;24.42;74.77;100574.75;4983626;28;102553;-59
2021/08/02 04:30:39;;;;;;;8.57;7.88;;;;;;;24.42;74.73;100569.19;4985931;28;103952;-58
2021/08/02 04:33:06;;;;;;;8.20;7.50;;;;;;;24.44;74.79;100566.81;4985339;28;102339;-59
2021/08/02 04:35:33;;;;;;;8.02;7.32;;;;;;;24.44;74.62;100569.59;4985654;28;102332;-58
2021/08/02 04:37:59;;;;;;;8.10;7.40;;;;;;;24.44;74.84;100567.63;4985701;28;102498;-59
2021/08/02 04:40:27;;;;;;;8.05;7.40;;;;;;;24.46;74.70;100570.03;4979074;28;103923;-59
2021/08/02 04:42:54;;;;;;;8.57;7.77;;;;;;;24.46;74.67;100564.47;4987444;28;102110;-60
2021/08/02 04:45:20;;;;;;;8.80;7.43;;;;;;;24.46;74.80;100550.56;4983126;28;102694;-58
2021/08/02 04:47:47;;;;;;;7.68;7.07;;;;;;;24.47;74.83;100551.38;4984398;28;102553;-58
2021/08/02 04:50:14;;;;;;;8.07;7.38;;;;;;;24.48;74.64;100552.97;4984261;28;104229;-58
2021/08/02 04:52:42;;;;;;;8.38;7.57;;;;;;;24.48;74.72;100562.13;4985425;28;102516;-58
2021/08/02 04:55:10;;;;;;;8.27;7.57;;;;;;;24.48;74.80;100561.31;4981733;28;102594;-58
2021/08/02 04:57:38;;;;;;;8.57;7.67;;;;;;;24.48;74.58;100567.69;4987183;28;102212;-58
2021/08/02 05:00:07;;;;;;;8.57;7.78;;;;;;;24.49;74.60;100577.66;4985481;28;103919;-58
2021/08/02 05:02:33;;;;;;;8.35;7.50;;;;;;;24.49;74.65;100566.53;4986767;28;102653;-59
2021/08/02 05:05:00;;;;;;;8.20;7.40;;;;;;;24.49;74.77;100571.25;4984995;28;103059;-59
2021/08/02 05:07:26;;;;;;;8.45;7.75;;;;;;;24.49;74.76;100574.88;4987436;28;102237;-59
2021/08/02 05:09:53;;;;;;;7.70;7.00;;;;;;;24.50;74.55;100576.47;4986251;28;103900;-58
2021/08/02 05:12:19;;;;;;;8.07;7.30;;;;;;;24.50;74.49;100582.03;4986606;28;102415;-59
2021/08/02 05:14:53;;;;;;;7.68;7.07;;;;;;;24.50;74.74;100589.59;4983734;28;102520;-59
2021/08/02 05:17:25;;;;;;;8.30;7.40;;;;;;;24.50;74.73;100578.47;4987091;28;102808;-59
2021/08/02 05:19:51;;;;;;;7.22;6.63;;;;;;;24.49;74.65;100574.03;4977796;28;104163;-58
2021/08/02 05:22:18;;;;;;;8.00;7.30;;;;;;;24.49;74.77;100574.88;4979181;28;102500;-59
2021/08/02 05:24:44;;;;;;;7.50;6.90;;;;;;;;;;4990461;28;102970;-58
2021/08/02 05:27:10;;;;;;;8.80;7.95;;;;;;;24.55;74.42;100584.50;4983975;28;102846;-58
2021/08/02 05:29:37;;;;;;;7.53;6.82;;;;;;;24.56;74.44;100597.25;4982312;28;103983;-58
2021/08/02 05:32:06;;;;;;;8.23;7.53;;;;;;;24.56;74.43;100590.88;4988333;28;102650;-58
2021/08/02 05:34:33;;;;;;;7.80;7.13;;;;;;;24.56;74.47;100577.78;4987696;28;102706;-58
2021/08/02 05:36:59;;;;;;;7.97;7.28;;;;;;;24.57;74.42;100576.59;4989423;28;102779;-58
2021/08/02 05:39:26;;;;;;;7.85;7.20;;;;;;;24.59;74.38;100584.56;4988589;28;103903;-58
2021/08/02 05:41:56;;;;;;;8.00;7.30;;;;;;;24.59;74.51;100579.81;4985743;28;102155;-58
2021/08/02 05:44:22;;;;;;;;;;;;;;;24.59;74.34;100577.03;4988023;28;102905;-58
2021/08/02 05:46:49;;;;;;;7.70;7.10;;;;;;;24.60;74.35;100575.88;4982080;28;103492;-58
2021/08/02 05:49:17;;;;;;;8.13;7.43;;;;;;;24.62;74.35;100572.72;4988156;28;103888;-58
2021/08/02 05:51:44;;;;;;;;;;;;;;;24.60;74.40;100570.31;4988354;28;102462;-58
2021/08/02 05:54:11;;;;;;;7.47;6.88;;;;;;;24.62;74.40;100565.16;4986429;28;102605;-58
2021/08/02 05:56:37;;;;;;;7.60;6.80;;;;;;;24.62;74.55;100561.56;4984816;28;102515;-58
2021/08/02 05:59:04;;;;;;;7.60;6.82;;;;;;;24.62;74.21;100554.03;4985029;28;103923;-58
2021/08/02 06:01:32;;;;;;;7.20;6.70;;;;;;;24.63;74.46;100547.31;4985793;28;102166;-58
2021/08/02 06:03:59;;;;;;;7.35;6.75;;;;;;;24.64;74.31;100551.69;4985625;28;102400;-58
2021/08/02 06:06:26;;;;;;;7.25;6.65;;;;;;;24.64;74.44;100543.34;4991934;28;102672;-58
2021/08/02 06:08:53;;;;;;;7.43;6.82;;;;;;;24.66;74.13;100534.63;4986874;28;104519;-58
2021/08/02 06:11:20;;;;;;;7.70;7.00;;;;;;;24.67;74.45;100519.53;4983655;28;102438;-58
2021/08/02 06:13:48;;;;;;;7.10;6.50;;;;;;;24.69;74.17;100517.97;4987819;28;102535;-58
2021/08/02 06:16:19;;;;;;;6.82;6.22;;;;;;;24.73;73.93;100522.81;4986680;28;102743;-59
2021/08/02 06:18:46;;;;;;;7.35;6.75;;;;;;;24.75;74.06;100528.81;4980872;28;103816;-58
2021/08/02 06:21:13;;;;;;;7.53;6.82;;;;;;;24.77;74.12;100526.44;4985830;28;103232;-58
2021/08/02 06:23:41;;;;;;;7.88;6.85;;;;;;;24.76;74.04;100528.44;4977354;28;102016;-60
2021/08/02 06:26:08;;;;;;;7.53;6.93;;;;;;;24.76;74.00;100522.88;4986422;28;102676;-59
2021/08/02 06:28:34;;;;;;;7.43;6.72;;;;;;;24.77;73.84;100523.66;4981537;28;103889;-59
2021/08/02 06:31:01;;;;;;;7.20;6.60;;;;;;;24.77;73.85;100524.47;4987520;28;104969;-58
2021/08/02 06:33:28;;;;;;;7.07;6.47;;;;;;;24.78;73.87;100520.53;4984470;28;102695;-58
2021/08/02 06:35:55;;;;;;;7.15;6.57;;;;;;;24.79;73.94;100526.88;4980920;28;103064;-59
2021/08/02 06:38:21;;;;;;;7.72;7.07;;;;;;;24.78;74.02;100512.19;4985058;28;104237;-58
2021/08/02 06:40:49;;;;;;;7.65;6.95;;;;;;;24.78;73.91;100508.59;4985838;28;102944;-57
2021/08/02 06:43:16;;;;;;;7.50;6.90;;;;;;;24.78;74.13;100505.81;4974189;28;102174;-59
2021/08/02 06:45:43;;;;;;;7.57;6.93;;;;;;;24.78;74.04;100506.63;4980335;28;105744;-59
2021/08/02 06:48:10;;;;;;;7.30;6.68;;;;;;;24.80;73.90;100509.00;4983869;28;103929;-58
2021/08/02 06:50:37;;;;;;;7.93;7.22;;;;;;;24.79;73.90;100494.28;4984952;28;102816;-58
2021/08/02 06:53:03;;;;;;;7.82;7.13;;;;;;;24.80;73.86;100490.31;4983298;28;103438;-58
2021/08/02 06:55:30;;;;;;;7.53;6.88;;;;;;;24.82;73.95;100503.88;4984099;28;102135;-58
2021/08/02 06:57:58;;;;;;;6.90;6.30;;;;;;;24.85;73.84;100503.16;4981851;28;103849;-58
2021/08/02 07:00:24;;;;;;;7.53;6.90;;;;;;;24.87;73.98;100507.13;4986092;28;102086;-58
2021/08/02 07:02:51;;;;;;;7.55;6.95;;;;;;;24.89;73.74;100510.38;4986479;28;102580;-59
2021/08/02 07:05:20;;;;;;;7.45;6.75;;;;;;;24.88;74.01;100511.56;4986973;28;102665;-58
2021/08/02 07:07:47;;;;;;;7.50;6.90;;;;;;;24.87;73.82;100517.47;4990222;28;103981;-58
2021/08/02 07:10:14;;;;;;;7.85;7.05;;;;;;;24.88;73.87;100519.06;4985221;28;102527;-58
2021/08/02 07:12:41;;;;;;;7.43;6.82;;;;;;;24.87;73.88;100515.50;4982349;28;102233;-58
2021/08/02 07:15:09;;;;;;;7.93;7.22;;;;;;;24.89;73.95;100521.50;4980122;28;102084;-59
2021/08/02 07:17:36;;;;;;;8.23;7.63;;;;;;;24.88;73.83;100519.91;4976656;28;103939;-58
2021/08/02 07:20:04;;;;;;;7.72;7.13;;;;;;;24.88;73.84;100517.13;4986982;28;102094;-59
2021/08/02 07:22:30;;;;;;;8.57;6.90;;;;;;;24.90;73.81;100522.28;4983988;28;102516;-59
2021/08/02 07:24:56;;;;;;;8.60;7.75;;;;;;;24.91;73.92;100526.69;4984588;28;102611;-58
2021/08/02 07:27:24;;;;;;;8.38;7.68;;;;;;;24.91;73.91;100521.13;4981425;28;103933;-58
2021/08/02 07:29:50;;;;;;;8.68;7.78;;;;;;;24.91;73.74;100521.13;4986446;28;103906;-58
2021/08/02 07:32:18;;;;;;;8.52;7.72;;;;;;;24.90;73.78;100519.50;4979917;28;102548;-58
2021/08/02 07:34:45;;;;;;;8.97;8.27;;;;;;;24.90;73.93;100519.50;4982905;28;102736;-58
2021/08/02 07:37:11;;;;;;;8.60;7.85;;;;;;;24.91;73.66;100518.31;4987064;28;103887;-60
2021/08/02 07:39:38;;;;;;;9.40;8.43;;;;;;;24.90;73.84;100517.53;4982699;28;102325;-59
2021/08/02 07:42:05;;;;;;;9.32;8.40;;;;;;;24.91;73.69;100508.00;4985722;28;102777;-59
2021/08/02 07:44:33;;;;;;;;;;;;;;;24.90;73.85;100514.75;4986521;28;102483;-58
2021/08/02 07:47:00;;;;;;;9.50;8.57;;;;;;;24.92;74.01;100508.81;4996848;28;103855;-58
2021/08/02 07:49:28;;;;;;;8.93;8.13;;;;;;;24.94;73.66;100517.59;5000883;28;102165;-59
2021/08/02 07:51:54;;;;;;;9.50;8.60;;;;;;;24.94;73.71;100512.81;4996444;28;102151;-59
2021/08/02 07:54:21;;;;;;;10.57;9.68;;;;;;;24.94;73.72;100512.81;4994037;28;105308;-58
2021/08/02 07:56:48;;;;;;;9.65;8.73;;;;;;;24.96;73.76;100508.88;4981361;28;103908;-58
2021/08/02 07:59:15;;;;;;;10.18;9.18;;;;;;;24.95;73.68;100508.03;4989514;28;101975;-58
2021/08/02 08:01:41;;;;;;;9.57;8.80;;;;;;;24.96;73.85;100506.09;4986786;28;102242;-58
2021/08/02 08:04:09;;;;;;;9.73;8.93;;;;;;;24.96;73.66;100504.09;4988045;28;104481;-58
2021/08/02 08:06:37;;;;;;;9.63;8.90;;;;;;;24.99;73.85;100496.97;4991027;28;104148;-58
2021/08/02 08:09:03;;;;;;;9.35;8.55;;;;;;;24.99;73.77;100497.75;4986398;28;103223;-58
2021/08/02 08:11:30;;;;;;;9.20;8.40;;;;;;;25.00;73.73;100493.81;4982151;28;102539;-58
2021/08/02 08:13:56;;;;;;;9.35;7.75;;;;;;;25.02;73.81;100494.25;4990944;28;104438;-59
2021/08/02 08:16:23;;;;;;;10.02;9.23;;;;;;;25.03;73.79;100504.22;4981992;28;104097;-58
2021/08/02 08:18:50;;;;;;;11.25;10.18;;;;;;;25.03;73.82;100504.22;4985390;28;102649;-59
2021/08/02 08:21:16;;;;;;;9.73;8.90;;;;;;;25.04;73.60;100497.47;4985090;28;102500;-59
2021/08/02 08:23:44;;;;;;;9.70;8.90;;;;;;;25.03;73.71;100504.22;4975472;28;102355;-58
2021/08/02 08:26:11;;;;;;;10.02;9.10;;;;;;;25.05;73.92;100504.63;4987833;28;103891;-58
2021/08/02 08:28:37;;;;;;;9.63;8.82;;;;;;;25.05;73.69;100489.91;4980793;28;102396;-58
2021/08/02 08:31:04;;;;;;;10.30;9.40;;;;;;;25.05;73.63;100493.50;4980439;28;102482;-58
2021/08/02 08:33:31;;;;;;;10.10;9.15;;;;;;;25.06;73.94;100503.44;4988222;28;102626;-58
2021/08/02 08:35:57;;;;;;;10.05;9.25;;;;;;;25.05;73.63;100493.50;4985488;28;104010;-58
2021/08/02 08:38:24;;;;;;;10.32;9.40;;;;;;;25.06;73.61;100492.31;4984075;28;103487;-58
2021/08/02 08:40:53;;;;;;;10.90;9.90;;;;;;;25.06;73.85;100488.72;4989212;28;102802;-58
2021/08/02 08:43:20;;;;;;;10.43;9.52;;;;;;;25.06;73.61;100506.22;4980380;28;102484;-58
2021/08/02 08:45:48;;;;;;;9.93;9.02;;;;;;;25.07;73.56;100499.50;4982791;28;104244;-58
2021/08/02 08:48:15;;;;;;;9.80;9.00;;;;;;;25.06;73.63;100497.88;4982521;28;103755;-58
2021/08/02 08:50:43;;;;;;;10.55;9.55;;;;;;;25.06;73.57;100492.31;4986659;28;102951;-58
2021/08/02 08:53:11;;;;;;;9.97;9.07;;;;;;;25.07;73.62;100487.56;4987036;28;102163;-58
2021/08/02 08:55:41;;;;;;;10.10;9.30;;;;;;;25.07;73.60;100488.38;4982315;28;103973;-58
2021/08/02 08:58:08;;;;;;;10.75;9.75;;;;;;;25.07;73.62;100488.38;4988549;28;103625;-58
2021/08/02 09:00:36;;;;;;;10.05;9.15;;;;;;;25.08;73.59;100491.94;4988474;28;102941;-58
2021/08/02 09:03:11;;;;;;;9.68;8.88;;;;;;;25.08;73.73;100497.50;4982414;28;102659;-58
2021/08/02 09:05:38;;;;;;;10.88;9.80;;;;;;;25.09;73.68;100497.13;4980673;28;104060;-58
2021/08/02 09:08:06;;;;;;;10.45;9.55;;;;;;;25.10;73.61;100493.22;4983243;28;102398;-58
2021/08/02 09:10:33;;;;;;;10.02;9.23;;;;;;;25.08;73.71;100495.53;4986908;28;102523;-58
2021/08/02 09:13:01;;;;;;;10.30;9.38;;;;;;;25.08;73.52;100489.97;4986071;28;102648;-58
2021/08/02 09:15:37;;;;;;;;;;;;;;;25.08;73.72;100484.41;4987784;28;103917;-59
2021/08/02 09:18:07;;;;;;;10.32;9.32;;;;;;;25.07;73.73;100488.38;4985104;28;102577;-58
2021/08/02 09:20:33;;;;;;;;;;;;;;;25.08;73.61;100494.72;4988163;28;102222;-58
2021/08/02 09:23:06;;;;;;;11.18;10.07;;;;;;;25.08;73.69;100495.53;4983218;28;102662;-58
2021/08/02 09:25:34;;;;;;;11.10;10.10;;;;;;;25.07;73.74;100491.16;4987246;28;104331;-58
2021/08/02 09:28:10;;;;;;;10.38;9.43;;;;;;;25.07;73.77;100493.94;4986451;28;102587;-58
2021/08/02 09:30:39;;;;;;;10.27;9.38;;;;;;;25.08;73.66;100489.16;4986861;28;102532;-58
2021/08/02 09:33:06;;;;;;;;;;;;;;;25.08;73.69;100483.59;4990113;28;102268;-58
2021/08/02 09:35:36;;;;;;;10.90;9.82;;;;;;;25.07;73.73;100482.00;4986635;28;103430;-58
2021/08/02 09:38:05;;;;;;;10.82;9.38;;;;;;;25.06;73.55;100480.38;4989992;28;102189;-59
2021/08/02 09:40:42;;;;;;;10.88;9.95;;;;;;;25.06;73.75;100477.59;4986013;28;102973;-58
2021/08/02 09:43:10;;;;;;;10.40;9.40;;;;;;;25.05;73.60;100473.22;4970416;28;102176;-58
2021/08/02 09:45:46;;;;;;;11.13;10.13;;;;;;;25.06;73.75;100475.59;4986472;28;103699;-58
2021/08/02 09:48:14;;;;;;;10.18;9.23;;;;;;;25.05;73.59;100478.78;4988709;28;102204;-58
2021/08/02 09:50:43;;;;;;;10.18;9.27;;;;;;;25.05;73.73;100473.22;4985266;28;102235;-58
2021/08/02 09:53:14;;;;;;;;;;;;;;;25.05;73.79;100467.63;4989496;28;102558;-58
2021/08/02 09:55:43;;;;;;;10.68;9.68;;;;;;;25.05;73.78;100467.63;4981290;28;104076;-58
2021/08/02 09:58:10;;;;;;;11.07;10.18;;;;;;;25.05;73.56;100462.06;4980825;28;102529;-58
2021/08/02 10:00:38;;;;;;;10.93;9.93;;;;;;;25.05;73.71;100468.44;4986548;28;102606;-58
2021/08/02 10:03:06;;;;;;;10.05;9.25;;;;;;;25.06;73.81;100464.47;4985057;28;102765;-58
2021/08/02 10:05:36;;;;;;;10.63;9.63;;;;;;;25.06;73.75;100470.03;4983508;28;104024;-58
2021/08/02 10:08:03;;;;;;;10.20;9.30;;;;;;;25.05;73.63;100456.50;4984499;28;102561;-58
2021/08/02 10:10:30;;;;;;;10.13;9.13;;;;;;;25.05;73.65;100462.06;4984445;28;102608;-58
2021/08/02 10:12:57;;;;;;;10.05;9.15;;;;;;;25.05;73.62;100464.84;4987382;28;102192;-58
2021/08/02 10:15:30;;;;;;;9.80;8.90;;;;;;;25.04;73.79;100460.47;4982411;28;104375;-58
2021/08/02 10:18:00;;;;;;;9.90;9.10;;;;;;;25.04;73.93;100466.84;4985008;28;102452;-58
2021/08/02 10:20:30;;;;;;;9.85;9.10;;;;;;;25.03;73.70;100456.88;4986126;28;102419;-58
2021/08/02 10:22:59;;;;;;;10.25;9.23;;;;;;;25.02;73.71;100455.25;4984776;28;103811;-58
2021/08/02 10:25:34;;;;;;;9.98;9.18;;;;;;;25.02;73.90;100468.38;4981282;28;104426;-58
2021/08/02 10:28:08;;;;;;;10.10;9.20;;;;;;;25.02;73.77;100468.38;4972115;28;102301;-58
2021/08/02 10:30:35;;;;;;;9.50;8.68;;;;;;;25.00;73.94;100463.19;4986966;28;102210;-58
2021/08/02 10:33:02;;;;;;;10.63;9.63;;;;;;;25.00;73.88;100463.19;4988283;28;102899;-58
2021/08/02 10:35:35;;;;;;;10.23;9.23;;;;;;;25.00;73.95;100463.19;4982444;28;104090;-58
2021/08/02 10:38:05;;;;;;;10.18;9.35;;;;;;;24.99;73.82;100467.16;4986164;28;102176;-58
2021/08/02 10:40:46;;;;;;;11.50;9.30;;;;;;;25.00;73.74;100465.97;4984397;28;102371;-58
2021/08/02 10:43:25;;;;;;;10.15;9.25;;;;;;;24.99;73.71;100458.00;4988026;28;102608;-58
2021/08/02 10:45:52;;;;;;;10.40;9.40;;;;;;;24.98;73.63;100451.63;4985612;28;103879;-58
2021/08/02 10:48:23;;;;;;;10.60;9.50;;;;;;;24.97;73.71;100461.16;4985093;28;102335;-58
2021/08/02 10:50:52;;;;;;;10.00;9.10;;;;;;;24.97;73.52;100465.94;4981585;28;102778;-58
2021/08/02 10:53:19;;;;;;;10.05;9.20;;;;;;;24.96;73.71;100454.00;4986007;28;102785;-58
2021/08/02 10:55:47;;;;;;;10.60;9.70;;;;;;;24.95;73.57;100460.72;4982719;28;104079;-58
2021/08/02 10:58:25;;;;;;;10.48;9.48;;;;;;;24.96;73.66;100448.44;4975707;28;104600;-58
2021/08/02 11:00:55;;;;;;;10.20;9.30;;;;;;;24.94;73.80;100451.56;4979929;28;102954;-58
2021/08/02 11:03:30;;;;;;;10.38;9.48;;;;;;;24.95;73.85;100449.59;4986772;28;102442;-58
2021/08/02 11:06:04;;;;;;;9.82;8.82;;;;;;;24.95;73.72;100446.81;4984377;28;104013;-58
2021/08/02 11:08:34;;;;;;;9.68;8.85;;;;;;;24.95;73.78;100446.81;4981674;28;102994;-58
2021/08/02 11:11:04;;;;;;;10.02;9.00;;;;;;;24.95;73.72;100441.25;4980828;28;102147;-58
2021/08/02 11:13:33;;;;;;;10.15;9.20;;;;;;;24.96;73.70;100442.88;4984055;28;103442;-59
2021/08/02 11:16:08;;;;;;;9.73;8.82;;;;;;;24.93;73.55;100418.56;4982629;28;104092;-59
2021/08/02 11:18:35;;;;;;;9.88;8.88;;;;;;;24.93;73.53;100422.16;4986267;28;102446;-58
2021/08/02 11:21:04;;;;;;;11.45;9.30;;;;;;;24.92;73.67;100414.97;4983255;28;102178;-58
2021/08/02 11:23:32;;;;;;;9.07;8.30;;;;;;;24.95;73.38;100410.63;4983309;28;102256;-59